Bandana, Kentucky
Current Conditions -  °F | °C
As of 8:15 AM on Monday 24 Nov 2014 (Local Time) from KM30 Reporting Station
Overcast Overcast  
Wind Chill:   Ceiling: 3000
Heat Index:   Visibility: 10mi
Dew Point:   Wind: 12mph
Humidity: 74%   Direction: 260°W
Pressure: 29.67"   Gusts: 18mph
Location:  37.15°N, 88.95°W
Report Text: KM30 241415Z AUTO 26010G16KT 10SM BKN030 OVC038 07/03 A2967 RMK AO2 T00700026
Loading
Personal Weather Stations






























Interactive Weather Map New forecast layout! Learn more

10-Day Weather Forecast

Advertisements
Track Severe Weather on mobile